Pagrindinis puslapis
METAR-TAF:

METAR-TAF

Oro uostai :

Kiurasao, Nyderlandų Antilai

platuma: 12-12N, ilguma: 068-58W, Aukštis: 9 m

Dabartinis oras

Ataskaita buvo paskelbta 1 valandą ir 0 minutes, ne 03:00 UTC
Vėjas 13 kt iš Rytų
Temperatūra 27°C
Drėgmė 74%
Slėgis 1015 hPa
Matomumas 10 km arba daugiau
Mažai debesys ne aukštis 1900 ft

METAR: TNCC 180300Z 10013KT 9999 FEW019 27/22 Q1015 NOSIG

Laikas: 00:00 (04:00 UTC)

Prognozė

Ataskaita buvo paskelbta 4 valandos ir 45 minutes, ne 23:15 UTC
Prognozė galioja nuo 18 metu 00 UTC su 18 metu 24 UTC
Vėjas 13 kt iš Rytų
Matomumas 10 km arba daugiau
Išsisklaidę debesys ne aukštis 1800 ft
Tikimybė 30% :
Laikinai
nuo 18 metu 08 UTC su 18 metu 16 UTC
Su prošvaistėmis ne aukštis 1400 ft

TAF: TNCC 172315Z 1800/1824 09013KT 9999 SCT018 PROB30 TEMPO 1808/1816 BKN014

Orai ataskaitas ir orų prognozės (METAR, TAF).

turimą stotys yra geltonos ir raudonos taškus žemėlapyje.

Perkelti pele per norėdami pamatyti stoties vardą.

Tada spustelėkite, norėdami matyti oro stebėjimo ir prognozės.

Norėdami pakeisti žemėlapį: spustelėkite ant žalios mygtukų su juodo kryžiaus žemyn,; žalią mygtuką su brūkšneliu, jei norite nutolinti; arba žalių rodyklių gretimoms žemėlapius.


METAR-TAF: